Coalmont, Colorado
Current Conditions -  °F | °C
As of 4:15 PM on Saturday 25 Oct 2014 (Local Time) from K33V Reporting Station
Clear Clear  
Wind Chill: 66°   Ceiling: Unl
Heat Index: 66°   Visibility: 10mi
Dew Point: 16°   Wind: 12mph
Humidity: 14%   Direction: 250°WSW
Pressure: 30.25"   Gusts: NA
Location:  40.56°N, 106.45°W
Report Text: K33V 252215Z AUTO 25010KT 10SM CLR 19/M09 A3025 RMK AO2
Loading
Personal Weather Stations






























Interactive Weather Map
Tropical Storm Tracking
New forecast layout! Learn more

10-Day Weather Forecast

Advertisements
Track Severe Weather on mobile